Aeroporto :
LOGIN :

Iscrizione | Disclaimer

   EN    FR    IT 

 










Sommario :    VFR   VFR Marginale   IFR   IFR Intensivo   IFR Molto Intensivo
Visibilità : 
Base nubi : 
>= 8 km
>= 3000ft
5 / 8 km
1000 / 3000 ft
1500m / 5 km
500 / 1000 ft
800 / 1500m
200 / 500 ft
< 800m
< 200 ft
Simboli :   Temporali  Nebbia  Neve Forte  Precipitazioni Forti  Vento > 20 kt
SIGMETs :   Varie  Temporali  Ghiacco  Turbolenza  Onda orograficha  Ceneri Vulcaniche






- Altitudine del aeroporto : 289 ft


LFYR - Romorantin Pruniers

ULTIMO METAR :
  • 191700Z AUTO 17003KT 9999 FEW044/// SCT076/// ///CB 23/21 Q1018

METARs OBSOLETI :
  • 191630Z AUTO VRB03KT 9999 FEW009/// SCT040/// BKN094/// ///CB 23/20 Q1018
  • 191600Z AUTO VRB02KT 9000 +RA BKN039/// BKN045/// OVC062/// ///CB 24/20 Q1018
  • 191530Z AUTO 21003KT 170V280 9999 FEW019/// SCT037/// BKN068/// ///CB 25/19 Q1018
  • 191500Z AUTO 22003KT 150V320 9999 FEW012/// BKN042/// BKN062/// ///CB 24/21 Q1018
  • 191430Z AUTO 24006KT 200V290 9999 FEW017/// SCT029/// BKN036/// ///CB 22/21 Q1018

TAF TAF LFYR
Valido dal 19 a 09 ore il 20 a 09 ore UTC


190800Z 1909/2009 26005KT 9999 BKN030 OVC040
PROB40
TEMPO 1909/1911 -RA BKN008
TEMPO 1911/1922 27010G20KT 4000 SHRA SCT030TCU
PROB40
TEMPO 1915/1922 31010G25KT 2000 TSRA BKN030CB
PROB40
TEMPO 2000/2006 2000 BR



MetMap, La meteo Aeronautica in un colpo d'occhio ! - Copyright ORBIFLY Dicembre 2007 - Disclaimer

ORBIFLY MET'MAP TEAM :

Programmazione e sviluppo : Alexandra Zaïnal
Concezione : Baudouin d'Aumeries
Supporto tecnico e logistico : Manuel Goepfert
Aiuto : Marc-Olivier Méhu
Aiuto per la traduzione : Arnaldo La Scala




FONTI E CREDITI :

   NOAA